sim
Sign-in with your pilot id or email,
or register
Callsign
Passwort

Schedule Details

Flight Number: EWG1977 (1)
Departure: Hamburg Airport (EDDH) at 16:00
Arrival: Munich Airport (EDDM) at 17:25
Route: Eurowings Passenger Schedule. Enter filed route here before submitting Pirep.

Weather Information
Getting current METAR information for EDDH 201850Z 06005KT CAVOK 14/08 Q1020 NOSIG
Getting current METAR information for EDDM 201850Z 04003KT 350V060 CAVOK 14/11 Q1016 NOSIG

Schedule Frequency

Route Map